Terminal Aerodrome Forecast
Issued by NWS

Home | Current Version | Previous Version | Text Only | Print | Product List | Glossary On
Versions: 1 2 3 4 5 6 7 8 9 10 11 12 13 14 15 16 17
000
FTUS44 KMAF 302200 AAA
TAFINK
TAF AMD
KINK 302214Z 3022/3118 25010KT P6SM SCT100 SCT250
      TEMPO 3022/3101 VRB25G40KT 5SM TSRA BKN050CB
     FM310100 03015G22KT P6SM BKN080=

USA.gov is the U.S. government's official web portal to all federal, state and local government web resources and services.